createdAt,value
2023-02-11T00:00:42.565Z,6.15
2023-02-11T00:03:09.292Z,6.15
2023-02-11T00:05:35.736Z,6.14
2023-02-11T00:08:02.163Z,6.14
2023-02-11T00:10:28.669Z,6.14
2023-02-11T00:12:55.166Z,6.14
2023-02-11T00:15:21.626Z,6.14
2023-02-11T00:17:48.072Z,6.13
2023-02-11T00:20:14.828Z,6.13
2023-02-11T00:22:41.557Z,6.13
2023-02-11T00:25:08.276Z,6.14
2023-02-11T00:27:36.328Z,6.14
2023-02-11T00:30:02.903Z,6.13
2023-02-11T00:32:29.378Z,6.11
2023-02-11T00:34:55.867Z,6.12
2023-02-11T00:37:22.777Z,6.12
2023-02-11T00:39:50.186Z,6.11
2023-02-11T00:42:16.954Z,6.11
2023-02-11T00:44:43.390Z,6.12
2023-02-11T00:47:09.883Z,6.12
2023-02-11T00:49:37.002Z,6.12
2023-02-11T00:52:03.902Z,6.11
2023-02-11T00:54:30.307Z,6.11
2023-02-11T00:56:56.711Z,6.11
2023-02-11T00:59:23.151Z,6.09
2023-02-11T01:01:49.650Z,6.08
2023-02-11T01:04:16.150Z,6.06
2023-02-11T01:06:42.564Z,6.04
2023-02-11T01:09:09.078Z,6.01
2023-02-11T01:11:35.806Z,5.99
2023-02-11T01:14:02.750Z,5.96
2023-02-11T01:16:29.219Z,5.94
2023-02-11T01:18:55.742Z,5.92
2023-02-11T01:21:22.338Z,5.91
2023-02-11T01:23:48.741Z,5.89
2023-02-11T01:26:15.165Z,5.86
2023-02-11T01:28:41.649Z,5.83
2023-02-11T01:31:08.332Z,5.80
2023-02-11T01:33:34.809Z,5.80
2023-02-11T01:36:03.116Z,5.80
2023-02-11T01:38:30.112Z,5.80
2023-02-11T01:40:59.523Z,5.81
2023-02-11T01:43:28.313Z,5.82
2023-02-11T01:46:04.407Z,5.83
2023-02-11T01:48:41.542Z,5.82
2023-02-11T01:51:26.421Z,5.82
2023-02-11T01:54:12.340Z,5.79
2023-02-11T01:57:04.127Z,5.78
2023-02-11T01:59:38.232Z,5.77
2023-02-11T02:02:09.451Z,5.76
2023-02-11T02:04:45.177Z,5.76
2023-02-11T02:07:17.833Z,5.75
2023-02-11T02:09:49.348Z,5.77
2023-02-11T02:12:16.000Z,5.76
2023-02-11T02:14:42.599Z,5.77
2023-02-11T02:17:33.563Z,5.76
2023-02-11T02:20:47.989Z,5.76
2023-02-11T02:23:28.471Z,5.74
2023-02-11T02:26:03.878Z,5.74
2023-02-11T02:28:33.057Z,5.70
2023-02-11T02:31:24.017Z,5.67
2023-02-11T02:34:05.255Z,5.63
2023-02-11T02:36:41.304Z,5.60
2023-02-11T02:39:22.171Z,5.59
2023-02-11T02:41:50.847Z,5.57
2023-02-11T02:44:18.990Z,5.58
2023-02-11T02:46:45.957Z,5.56
2023-02-11T02:49:14.470Z,5.55
2023-02-11T02:52:02.258Z,5.55
2023-02-11T02:55:04.339Z,5.55
2023-02-11T02:57:47.848Z,5.56
2023-02-11T03:00:29.779Z,5.57
2023-02-11T03:03:02.314Z,5.58
2023-02-11T03:05:47.694Z,5.58
2023-02-11T03:08:23.365Z,5.57
2023-02-11T03:10:53.304Z,5.58
2023-02-11T03:13:23.017Z,5.57
2023-02-11T03:15:54.189Z,5.57
2023-02-11T03:18:24.624Z,5.56
2023-02-11T03:20:54.372Z,5.55
2023-02-11T03:23:32.888Z,5.53
2023-02-11T03:26:25.656Z,5.51
2023-02-11T03:29:03.997Z,5.51
2023-02-11T03:31:47.727Z,5.51
2023-02-11T03:34:37.891Z,5.50
2023-02-11T03:37:25.525Z,5.48
2023-02-11T03:39:58.499Z,5.48
2023-02-11T03:42:28.803Z,5.48
2023-02-11T03:45:22.888Z,5.46
2023-02-11T03:47:55.621Z,5.44
2023-02-11T03:50:23.532Z,5.42
2023-02-11T03:52:50.952Z,5.39
2023-02-11T03:55:20.918Z,5.36
2023-02-11T03:57:48.302Z,5.33
2023-02-11T04:00:15.441Z,5.33
2023-02-11T04:02:43.084Z,5.32
2023-02-11T04:05:12.338Z,5.32
2023-02-11T04:07:38.752Z,5.35
2023-02-11T04:10:05.640Z,5.37
2023-02-11T04:12:32.108Z,5.40
2023-02-11T04:14:58.734Z,5.40
2023-02-11T04:17:25.200Z,5.43
2023-02-11T04:19:51.683Z,5.44
2023-02-11T04:22:18.091Z,5.46
2023-02-11T04:24:44.494Z,5.47
2023-02-11T04:27:11.028Z,5.47
2023-02-11T04:29:37.725Z,5.50
2023-02-11T04:32:04.462Z,5.50
2023-02-11T04:34:31.346Z,5.52
2023-02-11T04:36:57.835Z,5.53
2023-02-11T04:39:24.384Z,5.54
2023-02-11T04:41:50.883Z,5.56
2023-02-11T04:44:17.325Z,5.57
2023-02-11T04:46:43.727Z,5.59
2023-02-11T04:49:13.746Z,5.60
2023-02-11T04:51:40.642Z,5.61
2023-02-11T04:54:07.619Z,5.62
2023-02-11T04:56:34.758Z,5.62
2023-02-11T04:59:01.235Z,5.64
2023-02-11T05:01:27.837Z,5.65
2023-02-11T05:03:54.412Z,5.65
2023-02-11T05:06:20.879Z,5.65
2023-02-11T05:08:47.794Z,5.67
2023-02-11T05:11:23.046Z,5.67
2023-02-11T05:13:49.524Z,5.68
2023-02-11T05:16:17.042Z,5.69
2023-02-11T05:18:44.852Z,5.71
2023-02-11T05:21:18.406Z,5.71
2023-02-11T05:23:45.769Z,5.72
2023-02-11T05:26:12.737Z,5.73
2023-02-11T05:28:39.629Z,5.73
2023-02-11T05:31:06.160Z,5.76
2023-02-11T05:33:32.744Z,5.76
2023-02-11T05:36:04.621Z,5.77
2023-02-11T05:38:31.088Z,5.79
2023-02-11T05:40:57.540Z,5.79
2023-02-11T05:43:24.000Z,5.79
2023-02-11T05:45:50.852Z,5.81
2023-02-11T05:48:17.868Z,5.81
2023-02-11T05:50:44.561Z,5.82
2023-02-11T05:53:11.701Z,5.84
2023-02-11T05:55:38.556Z,5.85
2023-02-11T05:58:07.920Z,5.85
2023-02-11T06:00:35.002Z,5.87
2023-02-11T06:03:01.827Z,5.87
2023-02-11T06:05:28.251Z,5.86
2023-02-11T06:07:54.668Z,5.88
2023-02-11T06:10:21.441Z,5.89
2023-02-11T06:12:48.095Z,5.89
2023-02-11T06:15:14.578Z,5.91
2023-02-11T06:17:41.058Z,5.91
2023-02-11T06:20:08.694Z,5.92
2023-02-11T06:22:35.284Z,5.93
2023-02-11T06:25:02.451Z,5.94
2023-02-11T06:27:29.552Z,5.94
2023-02-11T06:29:56.329Z,5.96
2023-02-11T06:32:42.850Z,5.99
2023-02-11T06:35:11.753Z,6.01
2023-02-11T06:37:38.873Z,6.02
2023-02-11T06:40:05.719Z,6.02
2023-02-11T06:42:32.385Z,6.03
2023-02-11T06:44:58.807Z,6.04
2023-02-11T06:47:25.296Z,6.05
2023-02-11T06:49:52.017Z,6.06
2023-02-11T06:52:18.435Z,6.07
2023-02-11T06:54:44.831Z,6.09
2023-02-11T06:57:11.316Z,6.10
2023-02-11T06:59:37.741Z,6.10
2023-02-11T07:02:04.350Z,6.12
2023-02-11T07:04:30.876Z,6.14
2023-02-11T07:06:57.266Z,6.14
2023-02-11T07:09:23.694Z,6.18
2023-02-11T07:11:50.286Z,6.18
2023-02-11T07:14:17.016Z,6.19
2023-02-11T07:16:43.557Z,6.21
2023-02-11T07:19:10.452Z,6.23
2023-02-11T07:21:36.874Z,6.23
2023-02-11T07:24:09.664Z,6.25
2023-02-11T07:26:37.461Z,6.25
2023-02-11T07:29:03.885Z,6.28
2023-02-11T07:31:31.275Z,6.31
2023-02-11T07:34:00.135Z,6.33
2023-02-11T07:36:28.368Z,6.34
2023-02-11T07:38:54.900Z,6.37
2023-02-11T07:41:23.425Z,6.38
2023-02-11T07:43:50.936Z,6.42
2023-02-11T07:46:26.304Z,6.42
2023-02-11T07:48:53.557Z,6.45
2023-02-11T07:51:25.939Z,6.46
2023-02-11T07:53:53.401Z,6.47
2023-02-11T07:56:20.632Z,6.49
2023-02-11T07:58:47.892Z,6.51
2023-02-11T08:01:22.043Z,6.52
2023-02-11T08:03:51.348Z,6.54
2023-02-11T08:06:20.404Z,6.56
2023-02-11T08:08:47.276Z,6.58
2023-02-11T08:11:25.967Z,6.61
2023-02-11T08:13:53.786Z,6.64
2023-02-11T08:16:26.528Z,6.65
2023-02-11T08:18:55.424Z,6.67
2023-02-11T08:21:21.966Z,6.69
2023-02-11T08:23:49.926Z,6.70
2023-02-11T08:26:22.403Z,6.71
2023-02-11T08:28:51.378Z,6.73
2023-02-11T08:31:24.333Z,6.73
2023-02-11T08:33:51.373Z,6.72
2023-02-11T08:36:20.677Z,6.73
2023-02-11T08:38:47.591Z,6.73
2023-02-11T08:41:14.972Z,6.75
2023-02-11T08:43:42.786Z,6.77
2023-02-11T08:46:13.436Z,6.78
2023-02-11T08:48:39.910Z,6.82
2023-02-11T08:51:13.762Z,6.84
2023-02-11T08:53:40.424Z,6.88
2023-02-11T08:56:06.984Z,6.90
2023-02-11T08:58:33.663Z,6.92
2023-02-11T09:01:00.306Z,6.96
2023-02-11T09:03:27.039Z,7.00
2023-02-11T09:05:53.692Z,7.04
2023-02-11T09:08:20.964Z,7.09
2023-02-11T09:10:47.434Z,7.14
2023-02-11T09:13:13.933Z,7.18
2023-02-11T09:15:40.434Z,7.22
2023-02-11T09:18:07.534Z,7.25
2023-02-11T09:20:34.220Z,7.28
2023-02-11T09:23:00.796Z,7.33
2023-02-11T09:25:27.508Z,7.38
2023-02-11T09:27:54.036Z,7.41
2023-02-11T09:30:21.031Z,7.45
2023-02-11T09:32:47.524Z,7.48
2023-02-11T09:35:14.041Z,7.51
2023-02-11T09:37:40.597Z,7.54
2023-02-11T09:40:07.553Z,7.56
2023-02-11T09:42:53.022Z,7.60
2023-02-11T09:45:24.038Z,7.63
2023-02-11T09:48:12.664Z,7.68
2023-02-11T09:50:43.308Z,7.73
2023-02-11T09:53:20.739Z,7.76
2023-02-11T09:55:55.662Z,7.79
2023-02-11T09:58:30.747Z,7.80
2023-02-11T10:01:04.732Z,7.84
2023-02-11T10:03:46.109Z,7.87
2023-02-11T10:06:19.999Z,7.89
2023-02-11T10:09:12.799Z,7.93
2023-02-11T10:12:04.509Z,7.99
2023-02-11T10:15:16.266Z,8.05
2023-02-11T10:18:14.792Z,8.11
2023-02-11T10:20:50.508Z,8.17
2023-02-11T10:23:22.366Z,8.23
2023-02-11T10:25:54.433Z,8.31
2023-02-11T10:28:24.904Z,8.41
2023-02-11T10:31:11.712Z,8.53
2023-02-11T10:33:46.603Z,8.62
2023-02-11T10:36:15.097Z,8.68
2023-02-11T10:38:41.639Z,8.69
2023-02-11T10:41:13.396Z,8.71
2023-02-11T10:43:42.343Z,8.75
2023-02-11T10:46:18.274Z,8.77
2023-02-11T10:48:51.625Z,8.74
2023-02-11T10:51:34.097Z,8.73
2023-02-11T10:54:08.249Z,8.70
2023-02-11T10:56:37.349Z,8.68
2023-02-11T10:59:28.086Z,8.71
2023-02-11T11:02:00.569Z,8.74
2023-02-11T11:04:30.469Z,8.81
2023-02-11T11:07:16.890Z,8.89
2023-02-11T11:10:05.994Z,9.00
2023-02-11T11:12:36.626Z,9.11
2023-02-11T11:15:21.730Z,9.22
2023-02-11T11:18:20.915Z,9.29
2023-02-11T11:21:22.893Z,9.37
2023-02-11T11:23:56.463Z,9.44
2023-02-11T11:26:24.519Z,9.47
2023-02-11T11:28:53.506Z,9.47
2023-02-11T11:31:30.754Z,9.43
2023-02-11T11:33:59.744Z,9.50
2023-02-11T11:36:36.240Z,9.60
2023-02-11T11:39:22.196Z,9.72
2023-02-11T11:41:59.845Z,9.80
2023-02-11T11:44:32.336Z,9.74
2023-02-11T11:47:11.073Z,9.71
2023-02-11T11:49:43.536Z,9.68
2023-02-11T11:52:32.967Z,9.66
2023-02-11T11:55:07.857Z,9.67
2023-02-11T11:57:38.779Z,9.66
2023-02-11T12:00:14.628Z,9.63
2023-02-11T12:02:47.290Z,9.64
2023-02-11T12:05:42.355Z,9.66
2023-02-11T12:08:16.154Z,9.71
2023-02-11T12:10:58.600Z,9.76
2023-02-11T12:13:48.087Z,9.78
2023-02-11T12:16:42.227Z,9.85
2023-02-11T12:19:30.251Z,9.87
2023-02-11T12:22:03.500Z,9.92
2023-02-11T12:24:53.290Z,9.98
2023-02-11T12:27:41.103Z,10.09
2023-02-11T12:30:30.648Z,10.17
2023-02-11T12:33:40.351Z,10.27
2023-02-11T12:36:22.426Z,10.28
2023-02-11T12:39:06.358Z,10.33
2023-02-11T12:42:00.228Z,10.50
2023-02-11T12:44:44.734Z,10.59
2023-02-11T12:47:52.788Z,10.65
2023-02-11T12:50:56.895Z,10.69
2023-02-11T12:53:37.936Z,10.61
2023-02-11T12:56:29.283Z,10.64
2023-02-11T12:58:59.011Z,10.69
2023-02-11T13:01:39.877Z,10.59
2023-02-11T13:04:12.935Z,10.56
2023-02-11T13:06:48.497Z,10.58
2023-02-11T13:09:21.946Z,10.59
2023-02-11T13:11:53.702Z,10.70
2023-02-11T13:14:35.517Z,10.74
2023-02-11T13:17:11.134Z,10.78
2023-02-11T13:19:44.187Z,10.78
2023-02-11T13:22:20.044Z,10.80
2023-02-11T13:25:17.553Z,10.82
2023-02-11T13:27:48.092Z,10.91
2023-02-11T13:30:29.317Z,10.93
2023-02-11T13:32:55.785Z,10.85
2023-02-11T13:35:40.249Z,10.85
2023-02-11T13:38:19.171Z,10.91
2023-02-11T13:40:48.203Z,10.94
2023-02-11T13:43:25.535Z,10.92
2023-02-11T13:45:57.643Z,10.85
2023-02-11T13:48:52.704Z,10.89
2023-02-11T13:51:38.274Z,10.89
2023-02-11T13:54:06.283Z,10.84
2023-02-11T13:56:42.718Z,10.82
2023-02-11T13:59:27.574Z,10.80
2023-02-11T14:02:14.019Z,10.73
2023-02-11T14:05:31.725Z,10.68
2023-02-11T14:08:29.103Z,10.65
2023-02-11T14:11:12.344Z,10.59
2023-02-11T14:13:47.939Z,10.57
2023-02-11T14:16:28.194Z,10.56
2023-02-11T14:19:02.523Z,10.55
2023-02-11T14:21:32.370Z,10.55
2023-02-11T14:24:01.895Z,10.54
2023-02-11T14:26:49.982Z,10.54
2023-02-11T14:29:50.934Z,10.58
2023-02-11T14:32:34.965Z,10.60
2023-02-11T14:35:07.721Z,10.62
2023-02-11T14:38:04.194Z,10.65
2023-02-11T14:40:45.877Z,10.66
2023-02-11T14:43:16.941Z,10.71
2023-02-11T14:45:48.027Z,10.72
2023-02-11T14:48:16.972Z,10.69
2023-02-11T14:50:48.485Z,10.70
2023-02-11T14:53:24.007Z,10.71
2023-02-11T14:55:53.404Z,10.67
2023-02-11T14:58:21.211Z,10.65
2023-02-11T15:00:53.798Z,10.65
2023-02-11T15:03:30.292Z,10.63
2023-02-11T15:06:22.329Z,10.63
2023-02-11T15:08:53.300Z,10.59
2023-02-11T15:11:22.348Z,10.56
2023-02-11T15:13:50.445Z,10.56
2023-02-11T15:16:21.531Z,10.54
2023-02-11T15:18:51.773Z,10.52
2023-02-11T15:21:29.920Z,10.48
2023-02-11T15:24:06.459Z,10.42
2023-02-11T15:26:33.421Z,10.36
2023-02-11T15:29:00.141Z,10.32
2023-02-11T15:31:28.137Z,10.29
2023-02-11T15:33:55.162Z,10.19
2023-02-11T15:36:28.683Z,10.13
2023-02-11T15:39:32.724Z,10.09
2023-02-11T15:42:22.603Z,10.02
2023-02-11T15:45:07.079Z,9.99
2023-02-11T15:47:33.687Z,9.97
2023-02-11T15:50:00.185Z,9.93
2023-02-11T15:52:28.174Z,9.89
2023-02-11T15:55:00.642Z,9.85
2023-02-11T15:57:27.444Z,9.84
2023-02-11T15:59:56.275Z,9.83
2023-02-11T16:02:34.177Z,9.79
2023-02-11T16:05:04.700Z,9.75
2023-02-11T16:07:49.977Z,9.69
2023-02-11T16:10:24.429Z,9.62
2023-02-11T16:13:01.827Z,9.59
2023-02-11T16:15:34.319Z,9.55
2023-02-11T16:18:04.313Z,9.52
2023-02-11T16:20:31.120Z,9.48
2023-02-11T16:22:57.688Z,9.43
2023-02-11T16:25:24.159Z,9.41
2023-02-11T16:27:54.572Z,9.37
2023-02-11T16:30:32.855Z,9.33
2023-02-11T16:32:59.316Z,9.31
2023-02-11T16:35:25.794Z,9.29
2023-02-11T16:37:52.306Z,9.23
2023-02-11T16:40:18.967Z,9.22
2023-02-11T16:42:45.365Z,9.19
2023-02-11T16:45:12.219Z,9.18
2023-02-11T16:47:42.587Z,9.18
2023-02-11T16:50:11.781Z,9.17
2023-02-11T16:52:38.313Z,9.16
2023-02-11T16:55:07.194Z,9.13
2023-02-11T16:57:33.622Z,9.11
2023-02-11T17:00:00.186Z,9.07
2023-02-11T17:02:33.523Z,9.09
2023-02-11T17:05:02.596Z,9.11
2023-02-11T17:07:29.648Z,9.08
2023-02-11T17:09:56.625Z,9.08
2023-02-11T17:12:25.405Z,9.08
2023-02-11T17:14:52.885Z,9.05
2023-02-11T17:17:19.432Z,9.01
2023-02-11T17:19:47.775Z,8.99
2023-02-11T17:22:14.281Z,8.98
2023-02-11T17:24:40.702Z,8.97
2023-02-11T17:27:07.141Z,8.95
2023-02-11T17:29:33.647Z,8.91
2023-02-11T17:32:00.333Z,8.89
2023-02-11T17:34:29.207Z,8.85
2023-02-11T17:36:55.970Z,8.82
2023-02-11T17:39:22.498Z,8.82
2023-02-11T17:41:48.990Z,8.82
2023-02-11T17:44:16.479Z,8.79
2023-02-11T17:46:43.582Z,8.76
2023-02-11T17:49:12.097Z,8.75
2023-02-11T17:51:39.607Z,8.73
2023-02-11T17:54:12.191Z,8.69
2023-02-11T17:56:39.193Z,8.67
2023-02-11T17:59:08.308Z,8.68
2023-02-11T18:01:36.191Z,8.66
2023-02-11T18:04:03.369Z,8.65
2023-02-11T18:06:30.320Z,8.65
2023-02-11T18:08:59.672Z,8.62
2023-02-11T18:11:26.251Z,8.56
2023-02-11T18:13:54.556Z,8.56
2023-02-11T18:16:23.011Z,8.54
2023-02-11T18:18:51.117Z,8.55
2023-02-11T18:21:20.141Z,8.55
2023-02-11T18:23:47.324Z,8.52
2023-02-11T18:26:15.752Z,8.53
2023-02-11T18:28:45.361Z,8.53
2023-02-11T18:31:13.853Z,8.52
2023-02-11T18:33:41.673Z,8.50
2023-02-11T18:36:11.159Z,8.49
2023-02-11T18:38:38.181Z,8.48
2023-02-11T18:41:04.817Z,8.48
2023-02-11T18:43:33.783Z,8.46
2023-02-11T18:46:02.130Z,8.47
2023-02-11T18:48:29.021Z,8.47
2023-02-11T18:50:56.224Z,8.47
2023-02-11T18:53:23.634Z,8.46
2023-02-11T18:55:52.621Z,8.44
2023-02-11T18:58:21.154Z,8.41
2023-02-11T19:00:48.406Z,8.41
2023-02-11T19:03:15.097Z,8.39
2023-02-11T19:05:49.562Z,8.39
2023-02-11T19:08:17.165Z,8.36
2023-02-11T19:10:45.852Z,8.31
2023-02-11T19:13:13.181Z,8.31
2023-02-11T19:15:44.452Z,8.32
2023-02-11T19:18:12.625Z,8.30
2023-02-11T19:20:40.934Z,8.30
2023-02-11T19:23:07.723Z,8.30
2023-02-11T19:25:34.637Z,8.31
2023-02-11T19:28:01.447Z,8.32
2023-02-11T19:30:28.096Z,8.34
2023-02-11T19:32:57.126Z,8.35
2023-02-11T19:35:24.904Z,8.32
2023-02-11T19:37:51.523Z,8.30
2023-02-11T19:40:18.084Z,8.30
2023-02-11T19:42:44.582Z,8.27
2023-02-11T19:45:11.064Z,8.25
2023-02-11T19:47:37.528Z,8.27
2023-02-11T19:50:05.913Z,8.27
2023-02-11T19:52:32.504Z,8.27
2023-02-11T19:55:00.001Z,8.26
2023-02-11T19:57:26.652Z,8.25
2023-02-11T19:59:54.850Z,8.24
2023-02-11T20:02:21.391Z,8.26
2023-02-11T20:04:48.080Z,8.29
2023-02-11T20:07:14.653Z,8.27
2023-02-11T20:09:42.456Z,8.26
2023-02-11T20:12:09.200Z,8.26
2023-02-11T20:14:35.681Z,8.28
2023-02-11T20:17:02.520Z,8.26
2023-02-11T20:19:30.610Z,8.25
2023-02-11T20:21:57.162Z,8.20
2023-02-11T20:24:24.579Z,8.19
2023-02-11T20:26:55.533Z,8.19
2023-02-11T20:29:23.599Z,8.19
2023-02-11T20:31:51.134Z,8.18
2023-02-11T20:34:18.120Z,8.19
2023-02-11T20:36:51.457Z,8.18
2023-02-11T20:39:18.926Z,8.19
2023-02-11T20:41:46.251Z,8.18
2023-02-11T20:44:13.185Z,8.16
2023-02-11T20:46:46.524Z,8.17
2023-02-11T20:49:15.432Z,8.17
2023-02-11T20:51:42.332Z,8.13
2023-02-11T20:54:13.012Z,8.13
2023-02-11T20:56:39.599Z,8.16
2023-02-11T20:59:06.795Z,8.14
2023-02-11T21:01:36.136Z,8.15
2023-02-11T21:04:10.256Z,8.12
2023-02-11T21:06:39.974Z,8.12
2023-02-11T21:09:09.367Z,8.12
2023-02-11T21:11:36.094Z,8.12
2023-02-11T21:14:03.300Z,8.14
2023-02-11T21:16:30.067Z,8.14
2023-02-11T21:18:56.890Z,8.11
2023-02-11T21:21:23.837Z,8.09
2023-02-11T21:23:50.275Z,8.10
2023-02-11T21:26:19.673Z,8.11
2023-02-11T21:28:46.196Z,8.10
2023-02-11T21:31:30.753Z,8.09
2023-02-11T21:33:59.527Z,8.11
2023-02-11T21:36:28.017Z,8.10
2023-02-11T21:38:54.690Z,8.07
2023-02-11T21:41:22.555Z,8.08
2023-02-11T21:43:49.993Z,8.08
2023-02-11T21:46:17.756Z,8.06
2023-02-11T21:48:44.370Z,8.03
2023-02-11T21:51:17.290Z,8.04
2023-02-11T21:53:44.122Z,8.04
2023-02-11T21:56:14.299Z,8.04
2023-02-11T21:58:40.916Z,8.06
2023-02-11T22:01:17.049Z,8.04
2023-02-11T22:03:44.531Z,8.02
2023-02-11T22:06:13.901Z,8.03
2023-02-11T22:08:40.779Z,8.04
2023-02-11T22:11:10.607Z,8.04
2023-02-11T22:13:37.266Z,8.03
2023-02-11T22:16:06.359Z,8.03
2023-02-11T22:18:33.021Z,8.02
2023-02-11T22:21:01.729Z,8.03
2023-02-11T22:23:29.229Z,8.02
2023-02-11T22:25:56.138Z,8.03
2023-02-11T22:28:23.429Z,8.03
2023-02-11T22:30:55.053Z,8.02
2023-02-11T22:33:22.518Z,8.00
2023-02-11T22:35:49.011Z,8.01
2023-02-11T22:38:15.497Z,8.02
2023-02-11T22:40:43.360Z,8.02
2023-02-11T22:43:10.582Z,8.01
2023-02-11T22:45:37.063Z,8.00
2023-02-11T22:48:03.689Z,7.99
2023-02-11T22:50:30.571Z,7.97
2023-02-11T22:52:57.339Z,7.95
2023-02-11T22:55:23.757Z,7.95
2023-02-11T22:57:50.174Z,7.93
2023-02-11T23:00:17.764Z,7.94
2023-02-11T23:02:44.222Z,7.92
2023-02-11T23:05:10.707Z,7.90
2023-02-11T23:07:37.198Z,7.90
2023-02-11T23:10:04.109Z,7.90
2023-02-11T23:12:30.603Z,7.90
2023-02-11T23:14:56.998Z,7.89
2023-02-11T23:17:24.572Z,7.88
2023-02-11T23:19:51.152Z,7.88
2023-02-11T23:22:17.720Z,7.89
2023-02-11T23:24:44.174Z,7.86
2023-02-11T23:27:10.658Z,7.87
2023-02-11T23:29:37.087Z,7.85
2023-02-11T23:32:03.727Z,7.83
2023-02-11T23:34:30.213Z,7.83
2023-02-11T23:36:59.126Z,7.84
2023-02-11T23:39:26.172Z,7.83
2023-02-11T23:41:58.852Z,7.83
2023-02-11T23:44:26.850Z,7.85
2023-02-11T23:46:53.441Z,7.85
2023-02-11T23:49:19.946Z,7.85
2023-02-11T23:51:46.515Z,7.83
2023-02-11T23:54:14.176Z,7.83
2023-02-11T23:56:42.683Z,7.81
2023-02-11T23:59:09.413Z,7.80
